Time;durP1;ratioP1;P1;durP2;ratioP2;P2;SDS_P1;SDS_P2;PMS_P1;PMS_P2;Temp;Humidity;BMP_temperature;BMP_pressure;BME280_temperature;BME280_humidity;BME280_pressure;Samples;Min_cycle;Max_cycle;Signal;HPM_P1;HPM_P2
2021/01/02 00:01:04;;;;;;;25.13;19.23;;;8.40;99.90;;;9.19;53.39;100832.41;4929349;28;98249;-65
2021/01/02 00:03:54;;;;;;;25.03;21.37;;;8.40;99.90;;;9.01;53.59;100827.66;4940339;28;97915;-64
2021/01/02 00:06:32;;;;;;;24.70;21.33;;;8.30;99.90;;;8.91;53.49;100823.50;4942533;28;100062;-66
2021/01/02 00:09:05;;;;;;;26.80;20.80;;;8.20;99.90;;;8.79;54.01;100829.09;4932186;28;96908;-66
2021/01/02 00:12:07;;;;;;;28.73;20.60;;;8.10;99.90;;;8.84;55.25;100832.47;4946657;28;97410;-66
2021/01/02 00:15:05;;;;;;;26.73;21.13;;;8.10;99.90;;;8.79;54.15;100839.59;4940768;28;104771;-66
2021/01/02 00:18:08;;;;;;;27.23;20.13;;;8.10;99.90;;;8.70;54.78;100839.88;4916422;28;104064;-66
2021/01/02 00:21:37;;;;;;;29.30;21.83;;;8.00;99.90;;;8.60;54.97;100832.19;4933677;28;98114;-65
2021/01/02 00:24:26;;;;;;;27.30;20.80;;;7.90;99.90;;;8.53;55.67;100837.63;4873468;28;99013;-67
2021/01/02 00:27:22;;;;;;;27.57;21.40;;;7.90;99.90;;;8.58;55.16;100836.63;4925382;28;97258;-64
2021/01/02 00:30:02;;;;;;;27.17;20.33;;;7.90;99.90;;;8.52;55.26;100831.50;4907279;28;100456;-63
2021/01/02 00:33:03;;;;;;;32.63;20.50;;;7.90;99.90;;;8.75;55.63;100830.94;4939218;28;97319;-65
2021/01/02 00:35:29;;;;;;;29.43;20.40;;;8.00;99.90;;;8.73;54.00;100834.50;4933320;28;97078;-64
2021/01/02 00:38:05;;;;;;;27.23;20.80;;;8.10;99.90;;;8.74;54.03;100841.50;4928019;28;100138;-65
2021/01/02 00:40:36;;;;;;;27.73;20.90;;;8.10;99.90;;;8.75;56.45;100843.22;4913902;28;100086;-67
2021/01/02 00:43:04;;;;;;;26.33;19.57;;;8.00;99.90;;;8.97;55.68;100839.16;4918309;28;99845;-64
2021/01/02 00:45:34;;;;;;;25.47;20.57;;;8.20;99.90;;;9.01;54.55;100843.44;4938104;28;97578;-67
2021/01/02 00:48:06;;;;;;;27.10;19.87;;;8.30;99.90;;;9.02;54.77;100837.25;4924552;28;101010;-64
2021/01/02 00:50:32;;;;;;;29.23;20.40;;;8.30;99.90;;;8.91;54.45;100844.56;4922025;28;99923;-65
2021/01/02 00:53:42;;;;;;;28.87;20.10;;;8.20;99.90;;;8.96;56.31;100842.66;4942097;28;96950;-64
2021/01/02 00:56:29;;;;;;;25.40;20.10;;;8.20;99.90;;;8.91;54.32;100849.81;4937227;28;99609;-64
2021/01/02 00:59:23;;;;;;;25.43;20.30;;;8.20;99.90;;;8.83;54.24;100846.53;4938977;28;97385;-67
2021/01/02 01:02:02;;;;;;;26.60;20.57;;;8.20;99.90;;;8.79;54.24;100850.13;4941969;28;97175;-68
2021/01/02 01:04:58;;;;;;;25.47;20.07;;;8.10;99.90;;;8.73;54.37;100850.31;4926767;28;101291;-64
2021/01/02 01:07:27;;;;;;;25.37;20.37;;;8.10;99.90;;;8.61;55.05;100844.44;4948960;28;97368;-69
2021/01/02 01:09:59;;;;;;;25.93;20.47;;;8.00;99.90;;;8.56;54.73;100843.69;4942295;28;100737;-69
2021/01/02 01:12:28;;;;;;;25.87;20.80;;;8.00;99.90;;;8.59;56.34;100843.63;4925931;28;102080;-67
2021/01/02 01:14:55;;;;;;;27.03;20.07;;;8.00;99.90;;;8.52;55.28;100844.66;4909264;28;101671;-66
2021/01/02 01:17:24;;;;;;;26.33;20.23;;;7.90;99.90;;;8.55;55.22;100847.22;4922335;28;98483;-68
2021/01/02 01:19:54;;;;;;;25.73;20.57;;;8.00;99.90;;;8.58;55.09;100852.41;4908951;28;104232;-66
2021/01/02 01:22:26;;;;;;;24.87;19.47;;;8.00;99.90;;;8.74;54.44;100852.88;4936403;28;104018;-64
2021/01/02 01:25:04;;;;;;;26.03;19.37;;;8.00;99.90;;;8.73;55.03;100851.16;4911032;28;98013;-67
2021/01/02 01:27:55;;;;;;;24.33;19.03;;;8.00;99.90;;;8.69;54.88;100854.78;4918985;28;98726;-67
2021/01/02 01:30:24;;;;;;;25.53;19.80;;;8.00;99.90;;;8.63;54.80;100849.66;4922607;28;100433;-68
2021/01/02 01:33:12;;;;;;;23.77;17.97;;;8.00;99.90;;;8.60;55.44;100850.59;4939708;28;98499;-68
2021/01/02 01:35:43;;;;;;;26.23;19.60;;;7.90;99.90;;;8.74;55.59;100852.03;4908031;28;99074;-65
2021/01/02 01:38:15;;;;;;;26.40;19.90;;;8.00;99.90;;;8.69;54.62;100854.78;4934489;28;99557;-68
2021/01/02 01:40:44;;;;;;;25.67;19.70;;;8.00;99.90;;;8.77;55.96;100857.19;4903021;28;99838;-64
2021/01/02 01:43:46;;;;;;;23.37;18.90;;;8.00;99.90;;;8.75;54.81;100849.34;4918644;28;98570;-65
2021/01/02 01:46:14;;;;;;;25.93;19.90;;;8.00;99.90;;;8.72;54.68;100859.09;4931400;28;100110;-66
2021/01/02 01:49:07;;;;;;;24.57;18.90;;;8.00;99.90;;;8.71;55.05;100857.38;4936851;28;97400;-65
2021/01/02 01:51:56;;;;;;;24.90;18.93;;;8.00;99.90;;;8.65;54.59;100859.22;4941590;28;102688;-63
2021/01/02 01:55:09;;;;;;;26.23;18.80;;;7.90;99.90;;;8.73;54.85;100858.19;4933591;28;102793;-67
2021/01/02 01:57:40;;;;;;;23.87;19.10;;;8.00;99.90;;;8.57;55.00;100861.19;4934341;28;98461;-67
2021/01/02 02:00:17;;;;;;;24.37;19.17;;;7.90;99.90;;;8.59;54.75;100859.38;4928720;28;97647;-68
2021/01/02 02:02:45;;;;;;;27.00;19.23;;;7.90;99.90;;;8.65;54.79;100858.38;4919804;28;100003;-65
2021/01/02 02:05:21;;;;;;;26.43;19.93;;;7.90;99.90;;;8.59;55.35;100851.50;4938616;28;98348;-64
2021/01/02 02:08:09;;;;;;;25.03;19.23;;;7.90;99.90;;;8.57;54.84;100865.59;4925030;28;98809;-67
2021/01/02 02:10:46;;;;;;;27.47;19.40;;;7.90;99.90;;;8.55;54.88;100872.66;4943005;28;103659;-67
2021/01/02 02:13:21;;;;;;;25.07;19.77;;;7.90;99.90;;;8.50;55.30;100864.84;4952062;28;100319;-64
2021/01/02 02:15:56;;;;;;;25.43;19.03;;;7.80;99.90;;;8.60;54.33;100863.75;4914959;28;97942;-67
2021/01/02 02:18:30;;;;;;;26.93;19.50;;;7.90;99.90;;;8.65;54.05;100867.13;4933091;28;97901;-64
2021/01/02 02:21:00;;;;;;;24.23;19.17;;;8.00;99.90;;;8.58;55.28;100862.91;4936659;28;98221;-69
2021/01/02 02:23:51;;;;;;;23.93;17.90;;;7.90;99.90;;;8.56;54.79;100862.09;4917513;28;102771;-68
2021/01/02 02:26:29;;;;;;;30.63;18.97;;;7.90;99.90;;;8.52;55.27;100878.81;4907772;28;98616;-64
2021/01/02 02:29:12;;;;;;;23.17;18.23;;;7.90;99.90;;;8.46;55.76;100878.13;4943634;28;97527;-67
2021/01/02 02:31:46;;;;;;;25.90;18.87;;;7.80;99.90;;;8.38;55.16;100873.03;4941543;28;98800;-64
2021/01/02 02:34:14;;;;;;;25.67;19.30;;;7.80;99.90;;;8.38;55.90;100875.66;4935661;28;97831;-68
2021/01/02 02:36:42;;;;;;;23.40;19.87;;;7.80;99.90;;;8.43;55.82;100878.19;4905853;28;100497;-67
2021/01/02 02:39:14;;;;;;;24.90;19.30;;;7.80;99.90;;;8.42;55.67;100877.34;4931688;28;98310;-66
2021/01/02 02:41:51;;;;;;;23.93;18.53;;;7.80;99.90;;;8.45;55.56;100879.88;4914622;28;99241;-67
2021/01/02 02:44:22;;;;;;;23.83;17.73;;;7.80;99.90;;;8.58;55.28;100878.69;4950261;28;100026;-68
2021/01/02 02:46:52;;;;;;;23.00;19.00;;;7.90;99.90;;;8.63;56.64;100882.06;4937605;28;97957;-67
2021/01/02 02:49:24;;;;;;;24.40;19.33;;;7.90;99.90;;;8.64;54.62;100873.28;4943055;28;97840;-69
2021/01/02 02:52:27;;;;;;;24.73;18.37;;;8.00;99.90;;;8.84;57.59;100878.06;4952692;28;97076;-65
2021/01/02 02:54:53;;;;;;;22.17;17.70;;;8.00;99.90;;;8.76;54.86;100873.88;4933544;28;101792;-67
2021/01/02 02:57:21;;;;;;;21.03;17.07;;;8.10;99.90;;;8.67;54.75;100876.72;4930546;28;99029;-67
2021/01/02 02:59:46;;;;;;;26.20;19.23;;;8.00;99.90;;;8.66;54.43;100881.13;4928418;28;98291;-66
2021/01/02 03:02:14;;;;;;;22.87;19.20;;;8.00;99.90;;;8.65;54.11;100880.25;4933072;28;97678;-67
2021/01/02 03:04:40;;;;;;;24.03;18.50;;;8.00;99.90;;;8.71;54.77;100881.03;4927469;28;96966;-67
2021/01/02 03:07:06;;;;;;;24.00;18.33;;;8.10;99.90;;;8.67;54.67;100882.00;4929236;28;98853;-69
2021/01/02 03:09:33;;;;;;;25.07;18.83;;;8.00;99.90;;;8.64;54.92;100873.28;4927017;28;99399;-67
2021/01/02 03:12:00;;;;;;;24.60;18.13;;;8.00;99.90;;;8.58;55.05;100894.47;4937406;28;98145;-66
2021/01/02 03:14:26;;;;;;;24.27;18.70;;;8.00;99.90;;;8.57;55.79;100887.50;4916256;28;103263;-68
2021/01/02 03:16:59;;;;;;;22.23;17.27;;;7.90;99.90;;;8.61;56.89;100883.88;4934479;28;99965;-65
2021/01/02 03:19:29;;;;;;;21.80;17.40;;;7.90;99.90;;;8.54;55.17;100889.34;4934382;28;97412;-65
2021/01/02 03:21:55;;;;;;;23.87;18.20;;;7.90;99.90;;;8.54;55.20;100887.56;4919531;28;97490;-68
2021/01/02 03:24:21;;;;;;;23.33;17.60;;;7.90;99.90;;;8.52;55.84;100899.84;4925242;28;98362;-64
2021/01/02 03:26:47;;;;;;;24.40;17.90;;;7.90;99.90;;;8.53;55.37;100891.06;4921018;28;99712;-65
2021/01/02 03:29:13;;;;;;;21.87;18.03;;;7.90;99.90;;;8.47;56.23;100891.22;4913421;28;98508;-65
2021/01/02 03:31:39;;;;;;;23.60;17.57;;;7.90;99.90;;;8.53;55.97;100885.81;4954163;28;97522;-66
2021/01/02 03:34:06;;;;;;;21.70;17.70;;;7.90;99.90;;;8.47;55.48;100896.47;4933259;28;97302;-64
2021/01/02 03:36:33;;;;;;;24.90;18.63;;;7.90;99.90;;;8.48;55.20;100887.69;4909087;28;99341;-68
2021/01/02 03:38:59;;;;;;;24.47;18.73;;;7.90;99.90;;;8.44;56.02;100880.78;4934689;28;98248;-68
2021/01/02 03:41:27;;;;;;;23.50;17.80;;;7.90;99.90;;;8.38;55.84;100886.16;4904426;28;97213;-65
2021/01/02 03:43:53;;;;;;;23.23;18.43;;;7.80;99.90;;;8.36;56.36;100887.97;4950666;28;99107;-67
2021/01/02 03:46:25;;;;;;;23.23;18.83;;;7.80;99.90;;;8.32;55.77;100888.91;4941338;28;100252;-67
2021/01/02 03:48:51;;;;;;;22.17;17.57;;;7.70;99.90;;;8.25;56.43;100884.72;4938431;28;97260;-64
2021/01/02 03:51:27;;;;;;;24.10;18.90;;;7.70;99.90;;;8.27;56.64;100878.50;4924619;28;99466;-67
2021/01/02 03:53:53;;;;;;;25.63;18.93;;;7.70;99.90;;;8.23;56.33;100881.22;4941019;28;98277;-68
2021/01/02 03:56:20;;;;;;;29.13;18.40;;;7.70;99.90;;;8.27;56.09;100877.66;5061639;22;102502;-65
2021/01/02 03:58:45;;;;;;;22.37;17.53;;;7.70;99.90;;;8.34;56.34;100874.88;4866501;28;98709;-68
2021/01/02 04:01:13;;;;;;;24.50;18.83;;;7.70;99.90;;;8.30;55.73;100873.19;4861147;28;98734;-65
2021/01/02 04:03:39;;;;;;;24.67;18.80;;;7.70;99.90;;;8.29;55.23;100870.59;4851998;28;100659;-66
2021/01/02 04:06:06;;;;;;;23.60;17.63;;;7.80;99.90;;;8.30;56.03;100869.69;4853217;28;99693;-68
2021/01/02 04:08:32;;;;;;;24.80;18.77;;;7.70;99.90;;;8.33;56.13;100874.88;4861248;28;99738;-64
2021/01/02 04:10:58;;;;;;;24.60;17.97;;;7.80;99.90;;;8.35;56.16;100871.34;4864432;28;97765;-68
2021/01/02 04:13:24;;;;;;;24.87;19.23;;;7.80;99.90;;;8.30;55.70;100870.56;4861416;28;99598;-68
2021/01/02 04:15:50;;;;;;;24.40;18.93;;;7.70;99.90;;;8.24;55.65;100875.06;4876316;28;97434;-65
2021/01/02 04:18:17;;;;;;;26.73;18.93;;;7.70;99.90;;;8.25;56.44;100868.94;4858977;28;97430;-66
2021/01/02 04:20:44;;;;;;;22.07;17.57;;;7.70;99.90;;;8.23;55.93;100870.72;4856377;28;97989;-64
2021/01/02 04:23:09;;;;;;;25.90;19.23;;;7.70;99.90;;;8.24;55.97;100867.19;4861416;28;98676;-64
2021/01/02 04:25:35;;;;;;;25.60;18.50;;;7.70;99.90;;;8.19;56.10;100869.06;4855211;28;116808;-65
2021/01/02 04:28:01;;;;;;;24.80;17.90;;;7.60;99.90;;;8.18;56.24;100877.84;4860480;28;97369;-66
2021/01/02 04:30:27;;;;;;;24.57;18.07;;;7.60;99.90;;;8.19;56.57;100869.06;4871404;28;97477;-67
2021/01/02 04:32:52;;;;;;;23.77;18.10;;;7.60;99.90;;;8.23;55.99;100873.34;4848168;28;114592;-66
2021/01/02 04:35:18;;;;;;;25.00;17.87;;;7.70;99.90;;;8.26;56.42;100875.94;4891091;28;100891;-66
2021/01/02 04:37:44;;;;;;;23.47;17.87;;;7.70;99.90;;;8.25;56.08;100869.81;4855066;28;97068;-67
2021/01/02 04:40:12;;;;;;;28.23;19.57;;;7.70;99.90;;;8.18;56.07;100872.59;4897355;28;97379;-66
2021/01/02 04:42:42;;;;;;;22.13;17.40;;;7.60;99.90;;;8.15;56.07;100872.66;4886547;28;98845;-67
2021/01/02 04:45:09;;;;;;;22.77;18.30;;;7.60;99.90;;;8.26;57.61;100882.03;4885474;28;99274;-66
2021/01/02 04:47:38;;;;;;;21.90;17.17;;;7.60;99.90;;;8.30;56.52;100882.84;4888649;28;97428;-64
2021/01/02 04:50:07;;;;;;;25.43;19.17;;;7.70;99.90;;;8.36;56.53;100882.72;4881086;28;97380;-64
2021/01/02 04:52:35;;;;;;;26.10;18.37;;;7.80;99.90;;;8.34;56.02;100879.25;4864142;28;97370;-64
2021/01/02 04:55:04;;;;;;;24.47;18.93;;;7.80;99.90;;;8.30;55.70;100882.84;4880823;28;99033;-65
2021/01/02 04:57:37;;;;;;;25.27;18.43;;;7.80;99.90;;;8.30;56.80;100890.72;4891924;28;97182;-68
2021/01/02 05:00:08;;;;;;;22.60;17.93;;;7.70;99.90;;;8.27;56.63;100888.16;4894566;28;97168;-64
2021/01/02 05:02:37;;;;;;;26.97;19.77;;;7.70;99.90;;;8.22;55.89;100884.75;4891026;28;97130;-67
2021/01/02 05:05:06;;;;;;;26.10;18.23;;;7.70;99.90;;;8.21;56.33;100888.28;4871110;28;99497;-66
2021/01/02 05:07:33;;;;;;;22.10;17.83;;;7.70;99.90;;;8.22;56.45;100890.00;4908797;28;97004;-66
2021/01/02 05:09:59;;;;;;;23.90;17.80;;;7.70;99.90;;;8.22;56.55;100885.63;4887983;28;102672;-63
2021/01/02 05:12:31;;;;;;;21.77;17.10;;;7.70;99.90;;;8.26;56.78;100891.69;4890815;28;97914;-65
2021/01/02 05:15:03;;;;;;;22.17;18.27;;;7.70;99.90;;;8.28;56.06;100900.41;4869114;28;99808;-63
2021/01/02 05:17:30;;;;;;;22.97;18.00;;;7.80;99.90;;;8.26;55.72;100905.69;4879102;28;97163;-65
2021/01/02 05:20:05;;;;;;;24.50;18.13;;;7.80;99.90;;;8.20;56.27;100899.69;4884462;28;97120;-65
2021/01/02 05:22:32;;;;;;;23.17;17.83;;;7.70;99.90;;;8.13;56.88;100906.00;4904849;28;103905;-62
2021/01/02 05:25:16;;;;;;;21.43;17.00;;;7.70;99.90;;;8.15;56.47;100909.47;4872699;28;98797;-61
2021/01/02 05:27:47;;;;;;;28.53;18.30;;;7.60;99.90;;;8.18;57.07;100904.13;4897824;28;98200;-62
2021/01/02 05:30:27;;;;;;;23.57;17.23;;;7.70;99.90;;;8.21;57.65;100911.94;4870141;28;101300;-62
2021/01/02 05:33:01;;;;;;;24.37;18.20;;;7.70;99.90;;;8.26;57.13;100907.47;4885693;28;100618;-62
2021/01/02 05:35:47;;;;;;;21.73;16.90;;;7.70;99.90;;;8.33;56.96;100909.03;4886435;28;97201;-64
2021/01/02 05:38:23;;;;;;;22.37;17.17;;;7.80;99.90;;;8.44;56.45;100912.34;4878509;28;97070;-62
2021/01/02 05:40:58;;;;;;;24.43;17.73;;;7.80;99.90;;;8.50;56.83;100906.91;4881613;28;97855;-62
2021/01/02 05:43:27;;;;;;;24.27;18.47;;;7.80;99.90;;;8.63;56.67;100908.38;4914297;28;98570;-62
2021/01/02 05:45:53;;;;;;;21.83;17.67;;;7.90;99.90;;;8.73;57.02;100909.03;4884897;28;103797;-61
2021/01/02 05:48:24;;;;;;;24.50;19.47;;;8.00;99.90;;;8.63;56.60;100908.38;4886952;28;97398;-62
2021/01/02 05:51:01;;;;;;;24.03;18.87;;;8.00;99.90;;;8.58;56.22;100905.00;4862793;28;99003;-62
2021/01/02 05:53:28;;;;;;;23.87;19.17;;;7.90;99.90;;;8.54;57.04;100908.59;4889760;28;98430;-61
2021/01/02 05:56:13;;;;;;;25.93;18.87;;;7.90;99.90;;;8.52;56.64;100913.00;4877861;28;97344;-62
2021/01/02 05:58:44;;;;;;;25.50;19.30;;;7.90;99.90;;;8.43;57.79;100910.59;4893001;28;97209;-62
2021/01/02 06:01:15;;;;;;;23.30;18.53;;;7.80;99.90;;;8.51;58.30;100908.66;4905044;28;97442;-61
2021/01/02 06:03:45;;;;;;;25.57;18.87;;;7.80;99.90;;;8.63;56.56;100918.88;4876831;28;97495;-61
2021/01/02 06:06:14;;;;;;;26.43;19.50;;;8.00;99.90;;;8.61;56.13;100915.44;4871470;28;103930;-62
2021/01/02 06:08:49;;;;;;;23.13;17.80;;;8.00;99.90;;;8.47;56.82;100916.66;4893390;28;97237;-62
2021/01/02 06:11:23;;;;;;;29.43;21.60;;;7.90;99.90;;;8.47;57.42;100912.25;4882683;28;97072;-61
2021/01/02 06:13:53;;;;;;;22.40;18.43;;;7.90;99.90;;;8.43;56.67;100915.00;4890470;28;99516;-61
2021/01/02 06:16:20;;;;;;;23.77;18.20;;;7.80;99.90;;;8.49;57.57;100913.09;4887047;28;100043;-61
2021/01/02 06:18:48;;;;;;;24.37;18.20;;;7.90;99.90;;;8.44;56.97;100916.72;4891754;28;96855;-62
2021/01/02 06:21:19;;;;;;;23.37;18.77;;;7.90;99.90;;;8.48;57.00;100924.50;4886310;28;97973;-61
2021/01/02 06:23:47;;;;;;;24.40;18.37;;;7.90;99.90;;;8.55;57.37;100919.97;4891494;28;99190;-61
2021/01/02 06:26:15;;;;;;;24.73;18.40;;;7.90;99.90;;;8.55;55.95;100926.09;4888315;28;100348;-62
2021/01/02 06:28:44;;;;;;;25.67;19.37;;;8.00;99.90;;;8.57;56.39;100926.94;4905431;28;98277;-62
2021/01/02 06:31:16;;;;;;;22.87;17.77;;;8.00;99.90;;;8.50;56.61;100925.31;4892785;28;97710;-61
2021/01/02 06:33:50;;;;;;;24.37;19.07;;;7.90;99.90;;;8.63;57.67;100923.28;4901005;28;100538;-61
2021/01/02 06:36:36;;;;;;;26.47;19.60;;;7.90;99.90;;;8.56;55.87;100926.97;4877112;28;97211;-61
2021/01/02 06:39:21;;;;;;;26.63;18.87;;;8.00;99.90;;;8.51;56.61;100921.78;4872170;28;97188;-62
2021/01/02 06:41:48;;;;;;;28.07;20.70;;;7.90;99.90;;;8.40;57.54;100926.47;4872120;28;97102;-62
2021/01/02 06:44:45;;;;;;;25.33;19.90;;;7.80;99.90;;;8.41;57.50;100917.66;4904829;28;97912;-62
2021/01/02 06:47:22;;;;;;;24.57;19.13;;;7.80;99.90;;;8.51;58.05;100927.06;4898348;28;103289;-61
2021/01/02 06:49:51;;;;;;;25.77;19.23;;;7.80;99.90;;;8.57;58.33;100924.31;4892569;28;96959;-62
2021/01/02 06:52:32;;;;;;;26.63;20.07;;;7.90;99.90;;;8.53;57.17;100927.88;4892529;28;96959;-61
2021/01/02 06:55:23;;;;;;;24.10;18.10;;;7.90;99.90;;;8.55;56.70;100936.63;4894017;28;99844;-61
2021/01/02 06:57:50;;;;;;;25.00;18.53;;;7.90;99.90;;;8.50;57.01;100934.97;4882911;28;99311;-62
2021/01/02 07:00:26;;;;;;;24.10;18.87;;;7.90;99.90;;;8.48;57.34;100932.38;4908609;28;97062;-62
2021/01/02 07:02:56;;;;;;;24.40;18.17;;;7.90;99.90;;;8.39;57.27;100935.25;4883310;28;97708;-62
2021/01/02 07:05:47;;;;;;;23.37;17.83;;;7.80;99.90;;;8.43;57.50;100933.41;4892165;28;101079;-62
2021/01/02 07:08:43;;;;;;;24.90;18.97;;;7.90;99.90;;;8.37;57.01;100934.38;4883301;28;102779;-62
2021/01/02 07:11:42;;;;;;;24.53;18.37;;;7.90;99.90;;;8.48;58.66;100944.66;4895806;28;97175;-61
2021/01/02 07:14:08;;;;;;;24.53;17.30;;;7.90;99.90;;;8.33;57.29;100940.59;4885398;28;97630;-61
2021/01/02 07:16:59;;;;;;;26.70;19.27;;;7.80;99.90;;;8.34;57.49;100943.22;4890258;28;97159;-62
2021/01/02 07:19:31;;;;;;;23.03;17.63;;;7.80;99.90;;;8.28;57.63;100947.72;4881274;28;103001;-62
2021/01/02 07:22:16;;;;;;;24.53;18.23;;;7.70;99.90;;;8.33;57.56;100951.09;4889519;28;97293;-62
2021/01/02 07:24:50;;;;;;;25.20;19.10;;;7.80;99.90;;;8.35;58.21;100952.81;4884075;28;97206;-62
2021/01/02 07:27:23;;;;;;;22.17;18.77;;;7.80;99.90;;;8.46;57.78;100949.09;4871831;28;97348;-61
2021/01/02 07:29:56;;;;;;;22.80;17.57;;;7.80;99.90;;;8.54;57.73;100949.81;4868157;28;99268;-62
2021/01/02 07:32:25;;;;;;;24.37;19.23;;;7.90;99.90;;;8.56;56.58;100954.13;4891100;28;97044;-61
2021/01/02 07:35:09;;;;;;;23.70;17.53;;;7.90;99.90;;;8.67;56.57;100950.38;4862686;28;96931;-62
2021/01/02 07:37:41;;;;;;;24.93;18.97;;;8.00;99.90;;;8.70;56.71;100955.59;4908111;28;97723;-62
2021/01/02 07:40:13;;;;;;;26.80;18.67;;;8.10;99.90;;;8.61;56.19;100962.75;4882989;28;100974;-61
2021/01/02 07:42:48;;;;;;;24.20;18.43;;;8.00;99.90;;;8.57;57.23;100961.13;4909765;28;97743;-65
2021/01/02 07:45:21;;;;;;;24.07;17.87;;;8.00;99.90;;;8.46;57.31;100960.47;4867947;28;96891;-62
2021/01/02 07:47:50;;;;;;;24.10;18.37;;;7.90;99.90;;;8.48;57.78;100965.69;4892536;28;97093;-61
2021/01/02 07:50:19;;;;;;;23.83;17.93;;;7.90;99.90;;;8.48;57.07;100966.56;4887929;28;96827;-61
2021/01/02 07:53:00;;;;;;;24.10;18.57;;;7.90;99.90;;;8.42;56.90;100971.97;4893095;28;97283;-64
2021/01/02 07:55:28;;;;;;;23.23;17.60;;;7.90;99.90;;;8.37;56.59;100965.94;4906724;28;97091;-67
2021/01/02 07:57:55;;;;;;;24.83;18.57;;;7.90;99.90;;;8.43;57.50;100967.56;4890990;28;98411;-68
2021/01/02 08:00:22;;;;;;;23.67;18.40;;;7.90;99.90;;;8.45;57.31;100969.28;4872659;28;99029;-65
2021/01/02 08:02:49;;;;;;;24.37;18.07;;;7.90;99.90;;;8.56;56.90;100975.16;4904878;28;97071;-64
2021/01/02 08:05:20;;;;;;;23.80;16.83;;;8.00;99.90;;;8.55;56.79;100970.81;4902797;28;96988;-68
2021/01/02 08:07:57;;;;;;;26.03;18.27;;;8.00;99.90;;;8.53;55.90;100969.09;4889395;28;99658;-63
2021/01/02 08:10:24;;;;;;;29.53;18.80;;;8.00;99.90;;;8.55;57.29;100978.69;4900414;28;98185;-66
2021/01/02 08:12:56;;;;;;;24.37;17.80;;;8.00;99.90;;;8.61;57.07;100978.53;4897220;28;96855;-63
2021/01/02 08:15:37;;;;;;;25.93;18.40;;;8.00;99.90;;;8.62;56.26;100975.00;4887569;28;97392;-63
2021/01/02 08:18:08;;;;;;;24.03;18.00;;;8.10;99.90;;;8.58;56.93;100978.63;4884812;28;99044;-66
2021/01/02 08:20:34;;;;;;;22.17;17.23;;;8.10;99.90;;;8.66;57.28;100981.06;4909292;28;100474;-66
2021/01/02 08:23:07;;;;;;;25.23;17.57;;;8.10;99.90;;;8.62;56.32;100980.28;4879062;28;97486;-66
2021/01/02 08:25:34;;;;;;;23.93;18.77;;;8.00;99.90;;;8.52;57.02;100985.75;4887548;28;97123;-64
2021/01/02 08:28:01;;;;;;;24.87;18.57;;;8.00;99.90;;;8.48;57.13;100986.72;4865047;28;100642;-63
2021/01/02 08:30:27;;;;;;;25.03;18.93;;;7.90;99.90;;;8.46;57.63;100986.78;4901776;28;98205;-63
2021/01/02 08:32:55;;;;;;;25.67;18.63;;;7.90;99.90;;;8.49;57.77;100988.47;4885831;28;98915;-64
2021/01/02 08:35:27;;;;;;;23.73;18.00;;;7.90;99.90;;;8.49;57.19;100985.84;4901705;28;96877;-62
2021/01/02 08:38:09;;;;;;;26.43;18.13;;;7.90;99.90;;;8.53;56.49;100977.84;4884589;28;99603;-66
2021/01/02 08:40:44;;;;;;;26.80;19.27;;;8.00;99.90;;;8.57;56.77;100981.28;4879757;28;100129;-64
2021/01/02 08:43:24;;;;;;;23.83;17.80;;;8.00;99.90;;;8.53;56.41;100990.13;4881446;28;96823;-64
2021/01/02 08:45:52;;;;;;;23.20;17.17;;;8.00;99.90;;;8.52;56.27;100986.63;4907502;28;97739;-64
2021/01/02 08:48:19;;;;;;;23.17;18.43;;;8.00;99.90;;;8.58;57.43;100985.66;4887867;28;101570;-65
2021/01/02 08:50:45;;;;;;;26.20;17.87;;;8.00;99.90;;;8.67;56.71;100989.81;4913220;28;99279;-66
2021/01/02 08:53:28;;;;;;;24.13;17.47;;;8.10;99.90;;;8.60;55.99;100992.59;4888961;28;97637;-64
2021/01/02 08:55:54;;;;;;;25.23;17.93;;;8.10;99.90;;;8.59;57.84;100992.63;4889398;28;97215;-64
2021/01/02 08:58:33;;;;;;;24.43;18.60;;;8.00;99.90;;;8.62;56.77;101006.56;4871458;28;99543;-64
2021/01/02 09:01:00;;;;;;;24.43;18.03;;;8.10;99.90;;;8.66;57.68;101004.72;4890584;28;99044;-62
2021/01/02 09:03:26;;;;;;;23.37;17.77;;;8.10;99.90;;;8.71;56.78;101005.50;4883936;28;97187;-63
2021/01/02 09:05:51;;;;;;;22.93;18.03;;;8.20;99.90;;;8.74;56.44;101005.44;4895336;28;97277;-63
2021/01/02 09:08:19;;;;;;;24.00;18.93;;;8.20;99.90;;;8.74;57.01;101004.56;4887843;28;102604;-65
2021/01/02 09:10:47;;;;;;;23.43;18.17;;;8.20;99.90;;;8.89;56.60;101009.47;4895123;28;97377;-67
2021/01/02 09:13:24;;;;;;;24.10;18.37;;;8.30;99.90;;;8.87;56.70;101006.03;4865747;28;97473;-68
2021/01/02 09:16:16;;;;;;;23.97;17.90;;;8.30;99.90;;;9.09;58.99;101012.50;4892547;28;98392;-65
2021/01/02 09:18:44;;;;;;;23.53;18.70;;;8.30;99.90;;;9.13;55.29;101013.31;4869604;28;102755;-63
2021/01/02 09:21:09;;;;;;;25.73;17.70;;;8.40;99.90;;;9.02;55.74;101008.31;4892991;28;100707;-67
2021/01/02 09:23:40;;;;;;;25.20;19.40;;;8.40;99.90;;;8.99;56.91;101012.78;4891583;28;97306;-68
2021/01/02 09:26:31;;;;;;;25.93;18.80;;;8.40;99.90;;;9.11;57.34;101016.00;4869125;28;97768;-66
2021/01/02 09:29:00;;;;;;;27.07;18.30;;;8.40;99.90;;;9.16;57.05;101018.50;4881821;28;97772;-64
2021/01/02 09:31:27;;;;;;;24.10;18.17;;;8.50;99.90;;;9.35;56.60;101025.03;4912517;28;98544;-66
2021/01/02 09:33:54;;;;;;;27.43;18.77;;;8.60;99.90;;;9.37;55.83;101022.34;4894406;28;97361;-68
2021/01/02 09:36:21;;;;;;;24.47;18.17;;;8.70;99.90;;;9.34;54.84;101032.97;4889295;28;97346;-66
2021/01/02 09:38:49;;;;;;;22.50;17.73;;;8.70;99.90;;;9.23;55.83;101027.97;4910292;28;98367;-65
2021/01/02 09:41:20;;;;;;;26.53;18.93;;;8.70;99.90;;;9.09;56.24;101036.19;4873399;28;104303;-65
2021/01/02 09:43:46;;;;;;;24.00;18.63;;;8.50;99.90;;;8.99;56.61;101032.06;4881727;28;97480;-64
2021/01/02 09:46:18;;;;;;;24.00;18.87;;;8.50;99.90;;;8.89;56.72;101038.41;4886977;28;97491;-65
2021/01/02 09:48:47;;;;;;;25.17;18.77;;;8.40;99.90;;;8.80;57.16;101038.63;4897100;28;99792;-67
2021/01/02 09:51:14;;;;;;;29.50;20.47;;;8.30;99.90;;;8.85;56.41;101044.66;4887614;28;99407;-67
2021/01/02 09:53:40;;;;;;;28.90;21.13;;;8.40;99.90;;;8.83;56.54;101041.19;4884726;28;97282;-65
2021/01/02 09:56:07;;;;;;;29.03;20.63;;;8.40;99.90;;;8.80;57.56;101042.09;4886220;28;97631;-64
2021/01/02 09:58:32;;;;;;;25.03;20.37;;;8.30;99.90;;;8.83;56.80;101031.53;4908581;28;97359;-68
2021/01/02 10:00:59;;;;;;;26.70;20.47;;;8.40;99.90;;;8.84;55.90;101032.41;4883575;28;98781;-65
2021/01/02 10:03:25;;;;;;;25.70;19.67;;;8.40;99.90;;;8.84;56.56;101033.28;4895025;28;97240;-68
2021/01/02 10:05:50;;;;;;;25.50;18.97;;;8.40;99.90;;;8.87;55.85;101034.97;4871976;28;103100;-65
2021/01/02 10:08:17;;;;;;;25.90;18.53;;;8.40;99.90;;;8.86;55.35;101031.47;4889652;28;100356;-66
2021/01/02 10:10:43;;;;;;;26.43;20.23;;;8.40;99.90;;;8.89;55.97;101041.91;4890309;28;99597;-64
2021/01/02 10:13:08;;;;;;;23.47;18.80;;;8.40;99.90;;;8.85;55.89;101034.13;4890521;28;97164;-68
2021/01/02 10:15:34;;;;;;;27.97;20.60;;;8.40;99.90;;;8.87;56.35;101032.34;4895588;28;97214;-67
2021/01/02 10:18:00;;;;;;;27.57;21.23;;;8.40;99.90;;;8.80;57.13;101030.72;4872020;28;113052;-65
2021/01/02 10:20:27;;;;;;;29.40;21.83;;;8.40;99.90;;;8.77;56.54;101033.44;4891602;28;99725;-65
2021/01/02 10:22:53;;;;;;;25.33;19.90;;;8.40;99.90;;;8.77;56.74;101021.16;4878075;28;103182;-68
2021/01/02 10:25:19;;;;;;;26.33;20.23;;;8.40;99.90;;;8.83;56.65;101020.16;4893613;28;100245;-66
2021/01/02 10:27:45;;;;;;;28.07;19.80;;;8.50;99.90;;;9.07;56.97;101024.84;4887632;28;100433;-65
2021/01/02 10:30:13;;;;;;;24.73;18.93;;;8.60;99.90;;;9.25;56.18;101024.38;4872037;28;97155;-66
2021/01/02 10:32:39;;;;;;;24.37;19.20;;;8.70;99.90;;;9.31;54.91;101027.78;4882397;28;97604;-67
2021/01/02 10:35:07;;;;;;;27.27;20.00;;;8.80;99.90;;;9.29;55.20;101019.06;4875103;28;97268;-65